createdAt,value
2022-08-11T00:01:25.237Z,93601.69
2022-08-11T00:04:04.905Z,93595.66
2022-08-11T00:06:35.166Z,93603.47
2022-08-11T00:09:04.913Z,93606.13
2022-08-11T00:11:41.428Z,93604.72
2022-08-11T00:14:19.331Z,93585.88
2022-08-11T00:17:00.622Z,93609.09
2022-08-11T00:20:12.750Z,93611.44
2022-08-11T00:22:23.521Z,93612.72
2022-08-11T00:24:54.733Z,93615.38
2022-08-11T00:27:32.266Z,93621.44
2022-08-11T00:29:59.197Z,93605.47
2022-08-11T00:32:27.729Z,93606.13
2022-08-11T00:35:49.994Z,93634.97
2022-08-11T00:37:50.634Z,93608.66
2022-08-11T00:40:31.287Z,93610.78
2022-08-11T00:43:20.261Z,93632.56
2022-08-11T00:46:23.548Z,93626.25
2022-08-11T00:49:02.390Z,93625.03
2022-08-11T00:52:04.286Z,93623.53
2022-08-11T00:54:38.758Z,93621.03
2022-08-11T00:57:37.729Z,93622.22
2022-08-11T01:00:18.983Z,93629.88
2022-08-11T01:03:07.825Z,93621.31
2022-08-11T01:05:34.420Z,93618.78
2022-08-11T01:08:40.136Z,93611.09
2022-08-11T01:11:24.935Z,93619.41
2022-08-11T01:14:34.381Z,93619.41
2022-08-11T01:17:30.288Z,93627.94
2022-08-11T01:20:48.637Z,93617.94
2022-08-11T01:23:53.925Z,93616.84
2022-08-11T01:26:29.513Z,93618.69
2022-08-11T01:29:07.868Z,93617.59
2022-08-11T01:32:11.880Z,93607.16
2022-08-11T01:35:49.430Z,93610.69
2022-08-11T01:38:38.092Z,93607.78
2022-08-11T01:41:49.441Z,93610.84
2022-08-11T01:44:37.409Z,93610.91
2022-08-11T01:47:52.489Z,93611.16
2022-08-11T01:50:54.335Z,93607.06
2022-08-11T01:53:40.167Z,93602.88
2022-08-11T01:56:34.343Z,93613.28
2022-08-11T01:59:11.992Z,93601.47
2022-08-11T02:01:38.648Z,93603.03
2022-08-11T02:04:29.543Z,93609.41
2022-08-11T02:07:11.812Z,93605.72
2022-08-11T02:09:54.459Z,93614.88
2022-08-11T02:12:46.083Z,93614.09
2022-08-11T02:15:28.421Z,93616.25
2022-08-11T02:18:13.949Z,93608.25
2022-08-11T02:21:02.373Z,93614.63
2022-08-11T02:24:14.345Z,93605.81
2022-08-11T02:27:02.185Z,93596.28
2022-08-11T02:29:53.056Z,93613.41
2022-08-11T02:32:53.080Z,93605.25
2022-08-11T02:35:36.651Z,93613.78
2022-08-11T02:38:18.426Z,93604.50
2022-08-11T02:40:49.432Z,93606.47
2022-08-11T02:43:37.751Z,93613.03
2022-08-11T02:46:27.396Z,93596.41
2022-08-11T02:49:23.497Z,93606.97
2022-08-11T02:52:08.584Z,93600.44
2022-08-11T02:54:56.317Z,93604.50
2022-08-11T02:57:37.594Z,93601.50
2022-08-11T03:00:11.924Z,93604.00
2022-08-11T03:02:51.690Z,93586.06
2022-08-11T03:05:24.457Z,93604.00
2022-08-11T03:08:07.359Z,93605.09
2022-08-11T03:11:19.883Z,93605.53
2022-08-11T03:14:15.586Z,93611.91
2022-08-11T03:16:55.655Z,93606.34
2022-08-11T03:19:41.868Z,93615.34
2022-08-11T03:22:19.322Z,93600.63
2022-08-11T03:24:46.397Z,93605.53
2022-08-11T03:27:41.623Z,93611.50
2022-08-11T03:30:34.889Z,93616.97
2022-08-11T03:33:43.912Z,93615.88
2022-08-11T03:36:33.314Z,93619.22
2022-08-11T03:39:51.122Z,93605.72
2022-08-11T03:42:46.267Z,93618.72
2022-08-11T03:45:31.176Z,93606.97
2022-08-11T03:48:07.033Z,93624.59
2022-08-11T03:51:01.607Z,93623.16
2022-08-11T03:53:45.850Z,93628.88
2022-08-11T03:56:30.845Z,93631.53
2022-08-11T03:59:21.759Z,93633.44
2022-08-11T04:02:02.332Z,93621.59
2022-08-11T04:04:29.356Z,93631.19
2022-08-11T04:07:32.443Z,93630.38
2022-08-11T04:09:59.070Z,93628.09
2022-08-11T04:12:48.694Z,93636.28
2022-08-11T04:16:11.363Z,93626.50
2022-08-11T04:19:00.728Z,93630.50
2022-08-11T04:21:49.020Z,93631.56
2022-08-11T04:24:36.171Z,93635.94
2022-08-11T04:27:44.782Z,93633.84
2022-08-11T04:30:28.240Z,93636.94
2022-08-11T04:32:59.755Z,93639.19
2022-08-11T04:36:02.350Z,93632.66
2022-08-11T04:38:44.809Z,93610.41
2022-08-11T04:41:33.427Z,93631.22
2022-08-11T04:44:06.967Z,93630.03
2022-08-11T04:47:10.396Z,93632.41
2022-08-11T04:50:22.075Z,93631.25
2022-08-11T04:53:10.400Z,93633.72
2022-08-11T04:56:11.029Z,93633.09
2022-08-11T04:59:13.860Z,93636.63
2022-08-11T05:01:59.317Z,93649.06
2022-08-11T05:04:56.569Z,93653.94
2022-08-11T05:07:26.404Z,93655.94
2022-08-11T05:10:19.994Z,93650.94
2022-08-11T05:12:51.928Z,93652.44
2022-08-11T05:15:52.956Z,93642.91
2022-08-11T05:18:42.735Z,93635.31
2022-08-11T05:21:30.596Z,93635.63
2022-08-11T05:24:40.894Z,93638.16
2022-08-11T05:27:33.336Z,93639.34
2022-08-11T05:30:25.202Z,93638.13
2022-08-11T05:33:22.675Z,93633.31
2022-08-11T05:36:01.424Z,93640.66
2022-08-11T05:38:54.541Z,93638.94
2022-08-11T05:41:45.812Z,93644.56
2022-08-11T05:44:37.543Z,93626.00
2022-08-11T05:47:23.319Z,93633.72
2022-08-11T05:50:13.735Z,93635.81
2022-08-11T05:53:04.813Z,93642.38
2022-08-11T05:56:02.545Z,93634.41
2022-08-11T05:58:42.540Z,93640.84
2022-08-11T06:01:12.304Z,93630.16
2022-08-11T06:04:02.166Z,93622.81
2022-08-11T06:06:30.248Z,93629.22
2022-08-11T06:08:58.762Z,93634.91
2022-08-11T06:11:43.279Z,93643.94
2022-08-11T06:14:12.701Z,93633.78
2022-08-11T06:16:41.460Z,93630.81
2022-08-11T06:19:09.240Z,93627.63
2022-08-11T06:21:36.616Z,93625.34
2022-08-11T06:24:14.065Z,93632.94
2022-08-11T06:27:09.185Z,93622.06
2022-08-11T06:29:46.833Z,93619.47
2022-08-11T06:32:16.439Z,93609.22
2022-08-11T06:35:09.804Z,93618.78
2022-08-11T06:37:45.288Z,93624.28
2022-08-11T06:40:25.689Z,93622.94
2022-08-11T06:43:21.788Z,93626.44
2022-08-11T06:45:51.445Z,93620.53
2022-08-11T06:48:21.856Z,93624.03
2022-08-11T06:51:14.033Z,93620.91
2022-08-11T06:54:03.566Z,93610.53
2022-08-11T06:57:12.437Z,93616.78
2022-08-11T06:59:59.897Z,93615.03
2022-08-11T07:02:37.729Z,93610.38
2022-08-11T07:05:16.794Z,93614.97
2022-08-11T07:08:41.496Z,93617.88
2022-08-11T07:12:16.381Z,93617.00
2022-08-11T07:15:09.285Z,93604.72
2022-08-11T07:17:49.694Z,93600.19
2022-08-11T07:21:01.769Z,93600.56
2022-08-11T07:23:50.513Z,93588.94
2022-08-11T07:26:43.024Z,93593.19
2022-08-11T07:29:14.546Z,93583.56
2022-08-11T07:31:46.321Z,93579.25
2022-08-11T07:34:36.729Z,93588.69
2022-08-11T07:37:17.755Z,93585.19
2022-08-11T07:39:46.539Z,93591.66
2022-08-11T07:42:27.834Z,93568.28
2022-08-11T07:45:15.204Z,93573.03
2022-08-11T07:48:02.022Z,93563.78
2022-08-11T07:50:51.774Z,93581.91
2022-08-11T07:53:22.067Z,93573.94
2022-08-11T07:55:51.570Z,93568.31
2022-08-11T07:58:45.261Z,93568.66
2022-08-11T08:01:43.270Z,93579.00
2022-08-11T08:04:30.231Z,93567.22
2022-08-11T08:07:17.021Z,93555.69
2022-08-11T08:10:03.364Z,93564.19
2022-08-11T08:12:50.129Z,93560.25
2022-08-11T08:15:36.288Z,93559.09
2022-08-11T08:18:08.351Z,93572.69
2022-08-11T08:20:40.292Z,93558.59
2022-08-11T08:23:08.345Z,93561.97
2022-08-11T08:25:38.057Z,93573.31
2022-08-11T08:28:10.076Z,93557.47
2022-08-11T08:30:54.707Z,93571.81
2022-08-11T08:33:23.192Z,93571.41
2022-08-11T08:36:11.210Z,93561.13
2022-08-11T08:38:47.287Z,93572.25
2022-08-11T08:41:17.404Z,93571.50
2022-08-11T08:43:49.583Z,93560.00
2022-08-11T08:46:19.573Z,93552.47
2022-08-11T08:48:48.075Z,93550.88
2022-08-11T08:52:00.836Z,93574.88
2022-08-11T08:54:25.383Z,93567.13
2022-08-11T08:56:56.064Z,93563.69
2022-08-11T08:59:25.919Z,93571.72
2022-08-11T09:02:00.716Z,93563.19
2022-08-11T09:04:29.406Z,93551.75
2022-08-11T09:07:06.670Z,93569.13
2022-08-11T09:09:33.956Z,93569.41
2022-08-11T09:12:05.337Z,93570.75
2022-08-11T09:14:56.447Z,93556.13
2022-08-11T09:17:23.700Z,93562.38
2022-08-11T09:20:01.920Z,93564.28
2022-08-11T09:23:10.549Z,93560.00
2022-08-11T09:25:58.121Z,93561.34
2022-08-11T09:28:31.695Z,93556.47
2022-08-11T09:31:01.468Z,93559.94
2022-08-11T09:33:30.572Z,93555.88
2022-08-11T09:35:58.217Z,93572.13
2022-08-11T09:38:49.397Z,93548.06
2022-08-11T09:41:17.043Z,93543.16
2022-08-11T09:44:04.527Z,93544.16
2022-08-11T09:46:33.115Z,93554.38
2022-08-11T09:49:02.341Z,93552.19
2022-08-11T09:51:32.270Z,93548.13
2022-08-11T09:54:06.555Z,93550.31
2022-08-11T09:56:52.440Z,93550.56
2022-08-11T09:59:22.163Z,93546.09
2022-08-11T10:01:55.096Z,93541.22
2022-08-11T10:04:35.611Z,93534.28
2022-08-11T10:07:10.381Z,93539.56
2022-08-11T10:09:51.708Z,93520.91
2022-08-11T10:12:30.289Z,93526.72
2022-08-11T10:15:22.402Z,93531.78
2022-08-11T10:18:20.081Z,93526.38
2022-08-11T10:20:51.805Z,93514.38
2022-08-11T10:24:00.640Z,93518.19
2022-08-11T10:26:48.521Z,93523.28
2022-08-11T10:29:37.570Z,93518.28
2022-08-11T10:32:31.933Z,93520.66
2022-08-11T10:35:02.065Z,93506.31
2022-08-11T10:38:08.689Z,93505.50
2022-08-11T10:40:23.638Z,93501.94
2022-08-11T10:43:06.794Z,93512.56
2022-08-11T10:45:55.259Z,93506.81
2022-08-11T10:48:30.327Z,93505.56
2022-08-11T10:51:50.544Z,93491.16
2022-08-11T10:54:24.244Z,93507.31
2022-08-11T10:57:12.779Z,93501.41
2022-08-11T10:59:42.705Z,93503.75
2022-08-11T11:02:15.133Z,93496.59
2022-08-11T11:05:09.280Z,93498.56
2022-08-11T11:07:50.264Z,93493.16
2022-08-11T11:10:17.083Z,93497.44
2022-08-11T11:13:04.743Z,93490.59
2022-08-11T11:15:54.632Z,93489.00
2022-08-11T11:18:35.720Z,93487.72
2022-08-11T11:21:08.544Z,93478.38
2022-08-11T11:23:53.934Z,93486.09
2022-08-11T11:26:38.625Z,93493.25
2022-08-11T11:29:26.797Z,93485.75
2022-08-11T11:32:16.485Z,93478.56
2022-08-11T11:34:54.181Z,93500.63
2022-08-11T11:37:23.770Z,93496.81
2022-08-11T11:39:53.213Z,93490.84
2022-08-11T11:42:21.641Z,93489.31
2022-08-11T11:44:48.975Z,93492.53
2022-08-11T11:47:21.829Z,93488.06
2022-08-11T11:49:49.779Z,93481.97
2022-08-11T11:52:19.632Z,93485.28
2022-08-11T11:54:51.337Z,93484.97
2022-08-11T11:57:38.499Z,93481.72
2022-08-11T12:00:33.539Z,93478.75
2022-08-11T12:03:09.628Z,93471.91
2022-08-11T12:05:38.153Z,93464.50
2022-08-11T12:08:16.271Z,93448.63
2022-08-11T12:11:13.423Z,93471.06
2022-08-11T12:13:42.193Z,93469.84
2022-08-11T12:16:35.069Z,93448.34
2022-08-11T12:19:03.927Z,93460.38
2022-08-11T12:21:31.320Z,93450.88
2022-08-11T12:24:19.603Z,93454.53
2022-08-11T12:27:02.813Z,93450.91
2022-08-11T12:29:41.353Z,93433.91
2022-08-11T12:32:11.118Z,93440.84
2022-08-11T12:34:37.961Z,93433.34
2022-08-11T12:37:10.920Z,93437.09
2022-08-11T12:40:16.812Z,93437.63
2022-08-11T12:43:21.902Z,93435.38
2022-08-11T12:45:58.369Z,93433.88
2022-08-11T12:49:00.532Z,93431.50
2022-08-11T12:52:11.621Z,93425.19
2022-08-11T12:54:57.191Z,93417.78
2022-08-11T12:57:50.263Z,93419.81
2022-08-11T13:00:36.841Z,93411.28
2022-08-11T13:03:25.908Z,93415.78
2022-08-11T13:05:59.527Z,93412.94
2022-08-11T13:08:29.271Z,93414.38
2022-08-11T13:11:16.707Z,93406.28
2022-08-11T13:13:52.906Z,93405.94
2022-08-11T13:16:32.183Z,93394.84
2022-08-11T13:19:01.021Z,93402.69
2022-08-11T13:21:28.600Z,93387.78
2022-08-11T13:24:00.462Z,93380.06
2022-08-11T13:26:43.395Z,93385.34
2022-08-11T13:29:20.709Z,93383.22
2022-08-11T13:31:48.396Z,93377.91
2022-08-11T13:34:17.121Z,93367.28
2022-08-11T13:36:45.782Z,93370.84
2022-08-11T13:39:13.536Z,93366.81
2022-08-11T13:41:45.028Z,93366.81
2022-08-11T13:44:15.825Z,93362.22
2022-08-11T13:46:45.805Z,93366.09
2022-08-11T13:49:16.675Z,93361.47
2022-08-11T13:51:44.162Z,93352.63
2022-08-11T13:54:22.564Z,93360.59
2022-08-11T13:56:54.093Z,93358.97
2022-08-11T13:59:30.039Z,93351.31
2022-08-11T14:02:22.052Z,93344.84
2022-08-11T14:04:56.234Z,93358.91
2022-08-11T14:07:25.755Z,93348.03
2022-08-11T14:10:01.947Z,93341.13
2022-08-11T14:12:52.267Z,93338.22
2022-08-11T14:15:32.919Z,93339.09
2022-08-11T14:18:06.467Z,93347.69
2022-08-11T14:20:54.248Z,93347.16
2022-08-11T14:23:31.328Z,93338.22
2022-08-11T14:26:18.477Z,93347.03
2022-08-11T14:28:46.012Z,93335.94
2022-08-11T14:31:15.501Z,93332.28
2022-08-11T14:34:00.913Z,93329.97
2022-08-11T14:36:59.045Z,93343.69
2022-08-11T14:39:28.399Z,93341.94
2022-08-11T14:42:20.811Z,93337.81
2022-08-11T14:45:02.728Z,93334.91
2022-08-11T14:47:37.582Z,93340.94
2022-08-11T14:50:11.508Z,93332.81
2022-08-11T14:53:01.708Z,93340.13
2022-08-11T14:55:48.835Z,93337.34
2022-08-11T14:58:21.748Z,93326.72
2022-08-11T15:00:53.354Z,93329.09
2022-08-11T15:03:26.242Z,93335.59
2022-08-11T15:05:58.544Z,93325.47
2022-08-11T15:08:48.159Z,93339.72
2022-08-11T15:11:36.799Z,93327.41
2022-08-11T15:14:06.458Z,93324.25
2022-08-11T15:16:52.385Z,93313.09
2022-08-11T15:19:21.279Z,93314.34
2022-08-11T15:22:08.035Z,93315.53
2022-08-11T15:24:36.457Z,93319.56
2022-08-11T15:27:31.512Z,93317.75
2022-08-11T15:30:32.632Z,93322.09
2022-08-11T15:33:23.250Z,93323.16
2022-08-11T15:36:10.943Z,93323.13
2022-08-11T15:38:44.461Z,93331.31
2022-08-11T15:41:35.880Z,93312.13
2022-08-11T15:44:44.443Z,93315.72
2022-08-11T15:47:14.280Z,93319.66
2022-08-11T15:50:10.397Z,93320.81
2022-08-11T15:52:37.847Z,93323.06
2022-08-11T15:55:08.880Z,93322.69
2022-08-11T15:57:55.697Z,93310.53
2022-08-11T16:00:41.362Z,93310.78
2022-08-11T16:03:54.487Z,93310.09
2022-08-11T16:06:15.932Z,93303.25
2022-08-11T16:08:45.672Z,93309.63
2022-08-11T16:11:13.829Z,93300.59
2022-08-11T16:13:40.912Z,93314.81
2022-08-11T16:16:15.351Z,93313.91
2022-08-11T16:18:53.815Z,93316.59
2022-08-11T16:21:33.753Z,93302.25
2022-08-11T16:24:06.004Z,93309.66
2022-08-11T16:27:11.733Z,93304.63
2022-08-11T16:29:25.001Z,93298.31
2022-08-11T16:32:11.556Z,93293.84
2022-08-11T16:34:58.464Z,93298.72
2022-08-11T16:37:44.235Z,93281.69
2022-08-11T16:40:12.059Z,93280.47
2022-08-11T16:43:04.604Z,93306.34
2022-08-11T16:45:59.385Z,93303.44
2022-08-11T16:48:36.453Z,93305.34
2022-08-11T16:51:07.013Z,93296.97
2022-08-11T16:53:54.675Z,93311.78
2022-08-11T16:56:30.084Z,93298.69
2022-08-11T16:59:17.029Z,93293.84
2022-08-11T17:02:04.915Z,93294.56
2022-08-11T17:05:00.159Z,93297.03
2022-08-11T17:07:47.526Z,93291.63
2022-08-11T17:11:01.570Z,93291.44
2022-08-11T17:13:42.340Z,93295.25
2022-08-11T17:16:13.608Z,93302.09
2022-08-11T17:18:43.487Z,93298.25
2022-08-11T17:21:23.795Z,93300.66
2022-08-11T17:23:55.279Z,93301.69
2022-08-11T17:26:27.439Z,93299.75
2022-08-11T17:28:59.284Z,93297.84
2022-08-11T17:31:45.709Z,93300.25
2022-08-11T17:34:32.616Z,93306.28
2022-08-11T17:37:00.187Z,93297.56
2022-08-11T17:39:31.064Z,93304.41
2022-08-11T17:42:18.237Z,93300.94
2022-08-11T17:45:04.047Z,93288.22
2022-08-11T17:47:51.349Z,93305.19
2022-08-11T17:50:18.900Z,93311.16
2022-08-11T17:53:06.171Z,93313.56
2022-08-11T17:55:53.786Z,93320.50
2022-08-11T17:58:41.670Z,93313.84
2022-08-11T18:01:11.121Z,93318.38
2022-08-11T18:03:40.556Z,93307.81
2022-08-11T18:06:12.851Z,93320.38
2022-08-11T18:09:02.472Z,93328.75
2022-08-11T18:12:11.473Z,93330.84
2022-08-11T18:14:57.601Z,93339.13
2022-08-11T18:17:42.986Z,93335.03
2022-08-11T18:20:28.887Z,93335.59
2022-08-11T18:23:14.916Z,93337.06
2022-08-11T18:26:06.400Z,93338.84
2022-08-11T18:29:05.922Z,93333.97
2022-08-11T18:31:54.188Z,93338.78
2022-08-11T18:34:49.060Z,93330.28
2022-08-11T18:37:45.620Z,93336.34
2022-08-11T18:40:37.928Z,93328.06
2022-08-11T18:43:28.347Z,93335.63
2022-08-11T18:46:20.185Z,93330.31
2022-08-11T18:49:15.374Z,93330.00
2022-08-11T18:52:06.575Z,93332.66
2022-08-11T18:54:55.456Z,93349.75
2022-08-11T18:57:50.128Z,93344.44
2022-08-11T19:00:41.927Z,93335.81
2022-08-11T19:03:30.754Z,93347.69
2022-08-11T19:06:38.157Z,93348.69
2022-08-11T19:09:30.592Z,93362.16
2022-08-11T19:12:17.952Z,93361.78
2022-08-11T19:15:04.525Z,93376.78
2022-08-11T19:17:53.911Z,93373.78
2022-08-11T19:20:44.392Z,93390.06
2022-08-11T19:23:33.883Z,93383.59
2022-08-11T19:26:21.356Z,93379.41
2022-08-11T19:29:08.148Z,93386.50
2022-08-11T19:31:55.926Z,93386.25
2022-08-11T19:34:43.623Z,93381.75
2022-08-11T19:37:29.555Z,93387.84
2022-08-11T19:40:27.175Z,93379.25
2022-08-11T19:43:23.832Z,93391.75
2022-08-11T19:46:15.963Z,93389.16
2022-08-11T19:49:05.002Z,93377.66
2022-08-11T19:51:54.256Z,93385.06
2022-08-11T19:54:44.344Z,93395.13
2022-08-11T19:57:34.674Z,93382.59
2022-08-11T20:00:30.059Z,93395.91
2022-08-11T20:03:17.462Z,93399.19
2022-08-11T20:06:04.720Z,93398.44
2022-08-11T20:08:55.126Z,93402.66
2022-08-11T20:11:48.435Z,93404.41
2022-08-11T20:14:36.204Z,93402.13
2022-08-11T20:17:21.891Z,93399.22
2022-08-11T20:20:09.144Z,93399.19
2022-08-11T20:22:54.340Z,93402.34
2022-08-11T20:25:43.000Z,93402.06
2022-08-11T20:28:31.935Z,93406.19
2022-08-11T20:31:17.256Z,93405.78
2022-08-11T20:34:03.672Z,93406.34
2022-08-11T20:36:54.936Z,93410.63
2022-08-11T20:39:42.516Z,93403.59
2022-08-11T20:42:30.689Z,93412.22
2022-08-11T20:45:23.634Z,93402.13
2022-08-11T20:48:15.320Z,93405.28
2022-08-11T20:51:06.195Z,93409.47
2022-08-11T20:53:56.833Z,93412.41
2022-08-11T20:56:45.676Z,93408.72
2022-08-11T20:59:33.362Z,93400.31
2022-08-11T21:02:35.741Z,93416.03
2022-08-11T21:06:08.198Z,93416.47
2022-08-11T21:08:29.472Z,93413.56
2022-08-11T21:11:15.150Z,93411.59
2022-08-11T21:14:14.452Z,93395.19
2022-08-11T21:17:04.523Z,93411.50
2022-08-11T21:20:17.074Z,93422.63
2022-08-11T21:23:32.785Z,93422.56
2022-08-11T21:26:26.139Z,93420.34
2022-08-11T21:29:18.392Z,93419.06
2022-08-11T21:32:05.071Z,93413.69
2022-08-11T21:34:52.367Z,93424.75
2022-08-11T21:37:39.037Z,93420.84
2022-08-11T21:40:28.693Z,93422.94
2022-08-11T21:43:17.443Z,93426.53
2022-08-11T21:46:04.193Z,93423.75
2022-08-11T21:48:50.249Z,93406.22
2022-08-11T21:51:35.463Z,93415.56
2022-08-11T21:54:21.886Z,93418.56
2022-08-11T21:57:07.824Z,93425.28
2022-08-11T22:00:03.115Z,93418.03
2022-08-11T22:02:53.470Z,93433.31
2022-08-11T22:05:39.671Z,93423.06
2022-08-11T22:08:26.611Z,93424.75
2022-08-11T22:11:12.885Z,93404.22
2022-08-11T22:14:06.001Z,93414.19
2022-08-11T22:16:54.089Z,93414.69
2022-08-11T22:19:40.507Z,93412.41
2022-08-11T22:22:26.764Z,93408.59
2022-08-11T22:25:16.492Z,93413.94
2022-08-11T22:28:03.925Z,93415.50
2022-08-11T22:30:49.240Z,93410.19
2022-08-11T22:33:35.500Z,93390.84
2022-08-11T22:36:23.952Z,93409.91
2022-08-11T22:39:09.974Z,93392.50
2022-08-11T22:41:55.105Z,93402.72
2022-08-11T22:44:40.293Z,93410.41
2022-08-11T22:47:38.466Z,93398.84
2022-08-11T22:50:27.086Z,93405.00
2022-08-11T22:53:13.895Z,93396.22
2022-08-11T22:55:59.827Z,93400.44
2022-08-11T22:58:46.058Z,93404.56
2022-08-11T23:01:35.696Z,93397.50
2022-08-11T23:04:21.370Z,93394.50
2022-08-11T23:07:08.637Z,93402.06
2022-08-11T23:09:54.522Z,93382.06
2022-08-11T23:12:40.065Z,93400.06
2022-08-11T23:15:26.429Z,93398.50
2022-08-11T23:18:11.984Z,93389.09
2022-08-11T23:20:59.062Z,93401.03
2022-08-11T23:23:47.521Z,93386.72
2022-08-11T23:26:37.089Z,93377.50
2022-08-11T23:29:23.164Z,93389.13
2022-08-11T23:32:11.369Z,93378.41
2022-08-11T23:35:38.090Z,93383.47
2022-08-11T23:38:08.201Z,93368.66
2022-08-11T23:40:53.353Z,93374.19
2022-08-11T23:43:43.136Z,93381.00
2022-08-11T23:46:29.186Z,93375.31
2022-08-11T23:49:17.484Z,93369.25
2022-08-11T23:52:03.843Z,93375.03
2022-08-11T23:54:49.543Z,93354.25
2022-08-11T23:57:35.025Z,93373.41
